Time;durP1;ratioP1;P1;durP2;ratioP2;P2;SDS_P1;SDS_P2;PMS_P1;PMS_P2;Temp;Humidity;BMP_temperature;BMP_pressure;BME280_temperature;BME280_humidity;BME280_pressure;Samples;Min_cycle;Max_cycle;Signal;HPM_P1;HPM_P2
2024/01/12 00:01:23;;;;;;;;;;;0.50;99.60;;;;;;5021026;28;19940;-62
2024/01/12 00:03:49;;;;;;;;;;;0.50;99.60;;;;;;5021005;28;19966;-61
2024/01/12 00:06:15;;;;;;;;;;;0.50;99.60;;;;;;5012835;28;20512;-62
2024/01/12 00:08:40;;;;;;;;;;;0.50;99.60;;;;;;5021041;28;19920;-62
2024/01/12 00:11:07;;;;;;;;;;;0.50;99.60;;;;;;5026084;28;20534;-62
2024/01/12 00:13:32;;;;;;;;;;;0.50;99.60;;;;;;5054311;28;19944;-62
2024/01/12 00:15:57;;;;;;;;;;;0.50;99.60;;;;;;5025977;28;20484;-62
2024/01/12 00:18:23;;;;;;;;;;;0.50;99.60;;;;;;5022691;28;19917;-62
2024/01/12 00:20:48;;;;;;;;;;;0.60;99.60;;;;;;5024093;28;19916;-62
2024/01/12 00:23:14;;;;;;;;;;;0.60;99.60;;;;;;5024594;28;20049;-62
2024/01/12 00:25:39;;;;;;;;;;;0.60;99.60;;;;;;5031257;28;20326;-62
2024/01/12 00:28:05;;;;;;;;;;;0.60;99.60;;;;;;5023876;28;20035;-62
2024/01/12 00:30:31;;;;;;;;;;;0.60;99.60;;;;;;5023589;28;20547;-62
2024/01/12 00:32:56;;;;;;;;;;;0.60;99.70;;;;;;5024847;28;19914;-62
2024/01/12 00:35:22;;;;;;;;;;;0.60;99.70;;;;;;5035242;28;19935;-62
2024/01/12 00:37:49;;;;;;;;;;;0.60;99.70;;;;;;5025725;28;19920;-62
2024/01/12 00:40:14;;;;;;;;;;;0.60;99.70;;;;;;5023816;28;19932;-62
2024/01/12 00:42:40;;;;;;;;;;;0.60;99.70;;;;;;5024321;28;19924;-62
2024/01/12 00:45:06;;;;;;;;;;;0.60;99.70;;;;;;5026336;28;20016;-62
2024/01/12 00:47:31;;;;;;;;;;;0.60;99.70;;;;;;5026534;28;20007;-62
2024/01/12 00:49:57;;;;;;;;;;;0.60;99.70;;;;;;5023155;28;19913;-62
2024/01/12 00:52:22;;;;;;;;;;;0.60;99.70;;;;;;5029142;28;20284;-62
2024/01/12 00:54:48;;;;;;;;;;;0.60;99.70;;;;;;5026673;28;19909;-62
2024/01/12 00:57:13;;;;;;;;;;;0.60;99.80;;;;;;5028788;28;19913;-62
2024/01/12 00:59:39;;;;;;;;;;;0.60;99.80;;;;;;5023623;28;19921;-62
2024/01/12 01:02:04;;;;;;;;;;;0.60;99.80;;;;;;5026281;28;20376;-62
2024/01/12 01:04:30;;;;;;;;;;;0.60;99.80;;;;;;5029009;28;19913;-62
2024/01/12 01:06:55;;;;;;;;;;;0.60;99.70;;;;;;5031720;28;19944;-62
2024/01/12 01:09:21;;;;;;;;;;;0.60;99.70;;;;;;5031837;28;20020;-62
2024/01/12 01:11:48;;;;;;;;;;;0.60;99.70;;;;;;5031499;28;19913;-62
2024/01/12 01:14:13;;;;;;;;;;;0.60;99.80;;;;;;5027566;28;20460;-62
2024/01/12 01:16:39;;;;;;;;;;;0.70;99.80;;;;;;5033410;28;19944;-62
2024/01/12 01:19:04;;;;;;;;;;;0.70;99.80;;;;;;5023050;28;19964;-62
2024/01/12 01:21:30;;;;;;;;;;;0.60;99.80;;;;;;5028559;28;19967;-62
2024/01/12 01:23:56;;;;;;;;;;;0.70;99.90;;;;;;5041293;28;19920;-62
2024/01/12 01:26:21;;;;;;;;;;;0.70;99.90;;;;;;5023649;28;20021;-62
2024/01/12 01:28:47;;;;;;;;;;;0.70;99.90;;;;;;5031468;28;20666;-62
2024/01/12 01:31:12;;;;;;;;;;;0.60;99.80;;;;;;5031861;28;20032;-62
2024/01/12 01:33:38;;;;;;;;;;;0.60;99.90;;;;;;5031720;28;20050;-62
2024/01/12 01:36:03;;;;;;;;;;;0.70;99.90;;;;;;5042133;28;19912;-62
2024/01/12 01:38:29;;;;;;;;;;;0.60;99.90;;;;;;5034217;28;20019;-62
2024/01/12 01:40:54;;;;;;;;;;;0.70;99.90;;;;;;5022981;28;19920;-62
2024/01/12 01:43:21;;;;;;;;;;;0.60;99.90;;;;;;5036465;28;20008;-62
2024/01/12 01:45:47;;;;;;;;;;;0.70;99.90;;;;;;5026194;28;19913;-62
2024/01/12 01:48:13;;;;;;;;;;;0.60;99.90;;;;;;5027226;28;20251;-62
2024/01/12 01:50:39;;;;;;;;;;;0.70;99.90;;;;;;5030516;28;19909;-62
2024/01/12 01:53:05;;;;;;;;;;;0.70;99.90;;;;;;5030948;28;20232;-62
2024/01/12 01:55:30;;;;;;;;;;;0.70;99.90;;;;;;5022870;28;19986;-62
2024/01/12 01:57:57;;;;;;;;;;;0.70;99.90;;;;;;5015240;28;19914;-62
2024/01/12 02:00:22;;;;;;;;;;;0.70;99.90;;;;;;5037480;28;19933;-62
2024/01/12 02:02:48;;;;;;;;;;;0.70;99.90;;;;;;5022712;28;19999;-62
2024/01/12 02:05:14;;;;;;;;;;;0.70;99.90;;;;;;5035007;28;19920;-62
2024/01/12 02:07:40;;;;;;;;;;;0.70;99.90;;;;;;5035465;28;19979;-62
2024/01/12 02:10:06;;;;;;;;;;;0.70;99.90;;;;;;5022076;28;19948;-62
2024/01/12 02:12:33;;;;;;;;;;;0.70;99.90;;;;;;5022979;28;19913;-62
2024/01/12 02:14:59;;;;;;;;;;;0.70;99.90;;;;;;5023965;28;19910;-62
2024/01/12 02:17:25;;;;;;;;;;;0.70;99.90;;;;;;5031257;28;19973;-62
2024/01/12 02:19:56;;;;;;;;;;;0.70;99.90;;;;;;5041768;28;19916;-62
2024/01/12 02:22:22;;;;;;;;;;;0.70;99.90;;;;;;5042391;28;19913;-62
2024/01/12 02:24:47;;;;;;;;;;;0.70;99.90;;;;;;5025309;28;19913;-62
2024/01/12 02:27:13;;;;;;;;;;;0.70;99.90;;;;;;5024055;28;20534;-62
2024/01/12 02:29:38;;;;;;;;;;;0.70;99.90;;;;;;5029694;28;20011;-62
2024/01/12 02:32:04;;;;;;;;;;;0.70;99.90;;;;;;5038045;28;20003;-62
2024/01/12 02:34:29;;;;;;;;;;;0.70;99.90;;;;;;5082549;28;20004;-62
2024/01/12 02:36:55;;;;;;;;;;;0.70;99.90;;;;;;5025642;28;20008;-62
2024/01/12 02:39:20;;;;;;;;;;;0.70;99.90;;;;;;5037335;28;20344;-62
2024/01/12 02:41:46;;;;;;;;;;;0.70;99.90;;;;;;5038720;28;20008;-62
2024/01/12 02:44:11;;;;;;;;;;;0.80;99.90;;;;;;5033670;28;19920;-62
2024/01/12 02:46:37;;;;;;;;;;;0.80;99.90;;;;;;5026884;28;20367;-62
2024/01/12 02:49:03;;;;;;;;;;;0.70;99.90;;;;;;5021743;28;20362;-62
2024/01/12 02:51:28;;;;;;;;;;;0.80;99.90;;;;;;5021760;28;19913;-62
2024/01/12 02:53:54;;;;;;;;;;;0.80;99.90;;;;;;5029351;28;19913;-62
2024/01/12 02:56:20;;;;;;;;;;;0.80;99.90;;;;;;5022282;28;19920;-62
2024/01/12 02:58:45;;;;;;;;;;;0.80;99.90;;;;;;5023724;28;19917;-62
2024/01/12 03:01:11;;;;;;;;;;;0.80;99.90;;;;;;5020958;28;19913;-62
2024/01/12 03:03:36;;;;;;;;;;;0.80;99.90;;;;;;5044084;28;19936;-62
2024/01/12 03:06:02;;;;;;;;;;;0.80;99.90;;;;;;5047675;28;19913;-62
2024/01/12 03:08:28;;;;;;;;;;;0.80;99.90;;;;;;5021903;28;19948;-62
2024/01/12 03:10:53;;;;;;;;;;;0.80;99.90;;;;;;5029825;28;19987;-62
2024/01/12 03:13:19;;;;;;;;;;;0.80;99.90;;;;;;5022151;28;19930;-62
2024/01/12 03:15:44;;;;;;;;;;;0.80;99.90;;;;;;5035699;28;19912;-62
2024/01/12 03:18:10;;;;;;;;;;;0.80;99.90;;;;;;5028418;28;19913;-62
2024/01/12 03:20:35;;;;;;;;;;;0.80;99.90;;;;;;5026533;28;19923;-62
2024/01/12 03:23:01;;;;;;;;;;;0.80;99.90;;;;;;5021638;28;19928;-62
2024/01/12 03:25:26;;;;;;;;;;;0.80;99.90;;;;;;5026638;28;19913;-62
2024/01/12 03:27:52;;;;;;;;;;;0.80;99.90;;;;;;5013658;28;20064;-62
2024/01/12 03:30:17;;;;;;;;;;;0.80;99.90;;;;;;5036751;28;19921;-62
2024/01/12 03:32:43;;;;;;;;;;;0.80;99.90;;;;;;5037664;28;19912;-62
2024/01/12 03:35:08;;;;;;;;;;;0.80;99.90;;;;;;5038224;28;19952;-62
2024/01/12 03:37:34;;;;;;;;;;;0.80;99.90;;;;;;5021534;28;19942;-62
2024/01/12 03:39:59;;;;;;;;;;;0.80;99.90;;;;;;5030759;28;20415;-62
2024/01/12 03:42:25;;;;;;;;;;;0.80;99.90;;;;;;5028735;28;20441;-62
2024/01/12 03:44:50;;;;;;;;;;;0.80;99.90;;;;;;5030559;28;19912;-62
2024/01/12 03:47:16;;;;;;;;;;;0.80;99.90;;;;;;5025328;28;20011;-62
2024/01/12 03:49:42;;;;;;;;;;;0.80;99.90;;;;;;5036310;28;19992;-62
2024/01/12 03:52:07;;;;;;;;;;;0.80;99.90;;;;;;5035589;28;20012;-62
2024/01/12 03:54:33;;;;;;;;;;;0.80;99.90;;;;;;5030434;28;20479;-62
2024/01/12 03:56:58;;;;;;;;;;;0.80;99.90;;;;;;5024855;28;19969;-62
2024/01/12 03:59:24;;;;;;;;;;;0.80;99.90;;;;;;5029638;28;19965;-62
2024/01/12 04:01:49;;;;;;;;;;;0.80;99.90;;;;;;5027596;28;19913;-62
2024/01/12 04:04:15;;;;;;;;;;;0.80;99.90;;;;;;5025066;28;19920;-62
2024/01/12 04:06:41;;;;;;;;;;;0.80;99.90;;;;;;5033172;28;19913;-62
2024/01/12 04:09:09;;;;;;;;;;;0.80;99.90;;;;;;5024456;28;19920;-62
2024/01/12 04:11:36;;;;;;;;;;;0.90;99.90;;;;;;5024702;28;19913;-62
2024/01/12 04:14:01;;;;;;;;;;;0.80;99.90;;;;;;5026059;28;19913;-62
2024/01/12 04:16:27;;;;;;;;;;;0.90;99.90;;;;;;5030635;28;20547;-62
2024/01/12 04:18:52;;;;;;;;;;;0.90;99.90;;;;;;5024230;28;19917;-62
2024/01/12 04:21:18;;;;;;;;;;;0.90;99.90;;;;;;5024702;28;19913;-62
2024/01/12 04:23:43;;;;;;;;;;;0.90;99.90;;;;;;5032020;28;19912;-62
2024/01/12 04:26:09;;;;;;;;;;;0.80;99.90;;;;;;5024581;28;19909;-62
2024/01/12 04:28:34;;;;;;;;;;;0.80;99.90;;;;;;5024078;28;19913;-62
2024/01/12 04:31:03;;;;;;;;;;;0.80;99.90;;;;;;5023812;28;19917;-62
2024/01/12 04:33:29;;;;;;;;;;;0.90;99.90;;;;;;5092849;28;19916;-62
2024/01/12 04:35:55;;;;;;;;;;;0.90;99.90;;;;;;5025007;28;19913;-62
2024/01/12 04:38:20;;;;;;;;;;;0.80;99.90;;;;;;5031459;28;19995;-62
2024/01/12 04:40:46;;;;;;;;;;;0.90;99.90;;;;;;5024100;28;19914;-62
2024/01/12 04:43:11;;;;;;;;;;;0.90;99.90;;;;;;5023267;28;19917;-62
2024/01/12 04:45:37;;;;;;;;;;;0.90;99.90;;;;;;5023716;28;19955;-62
2024/01/12 04:48:02;;;;;;;;;;;0.90;99.90;;;;;;5032044;28;20320;-62
2024/01/12 04:50:28;;;;;;;;;;;0.90;99.90;;;;;;5023188;28;19920;-62
2024/01/12 04:52:54;;;;;;;;;;;0.90;99.90;;;;;;5023790;28;20509;-62
2024/01/12 04:55:20;;;;;;;;;;;0.90;99.90;;;;;;5023866;28;19978;-62
2024/01/12 04:57:45;;;;;;;;;;;0.90;99.90;;;;;;5022551;28;19909;-62
2024/01/12 05:00:11;;;;;;;;;;;0.90;99.90;;;;;;5031307;28;19925;-62
2024/01/12 05:02:37;;;;;;;;;;;0.90;99.90;;;;;;5024035;28;19981;-62
2024/01/12 05:05:04;;;;;;;;;;;0.90;99.90;;;;;;5023527;28;19917;-62
2024/01/12 05:07:30;;;;;;;;;;;0.90;99.90;;;;;;5023907;28;19909;-62
2024/01/12 05:09:55;;;;;;;;;;;0.90;99.90;;;;;;5023163;28;20289;-62
2024/01/12 05:12:21;;;;;;;;;;;0.90;99.90;;;;;;5028306;28;19921;-62
2024/01/12 05:14:47;;;;;;;;;;;0.90;99.90;;;;;;5035026;28;20327;-62
2024/01/12 05:17:12;;;;;;;;;;;0.90;99.90;;;;;;5026730;28;19924;-62
2024/01/12 05:19:38;;;;;;;;;;;0.90;99.90;;;;;;5030143;28;20707;-62
2024/01/12 05:22:04;;;;;;;;;;;0.90;99.90;;;;;;5024336;28;20523;-62
2024/01/12 05:24:29;;;;;;;;;;;0.90;99.90;;;;;;5023609;28;19910;-62
2024/01/12 05:26:55;;;;;;;;;;;0.90;99.90;;;;;;5024056;28;20416;-62
2024/01/12 05:29:20;;;;;;;;;;;0.90;99.90;;;;;;5034800;28;20669;-62
2024/01/12 05:31:46;;;;;;;;;;;0.90;99.90;;;;;;5025052;28;19953;-62
2024/01/12 05:34:11;;;;;;;;;;;0.90;99.90;;;;;;5023060;28;20506;-62
2024/01/12 05:36:37;;;;;;;;;;;0.90;99.90;;;;;;5022359;28;20307;-62
2024/01/12 05:39:03;;;;;;;;;;;0.90;99.90;;;;;;5030929;28;19982;-62
2024/01/12 05:41:29;;;;;;;;;;;0.90;99.90;;;;;;5023559;28;19948;-62
2024/01/12 05:43:56;;;;;;;;;;;0.90;99.90;;;;;;5022851;28;20280;-62
2024/01/12 05:46:21;;;;;;;;;;;0.90;99.90;;;;;;5023179;28;19913;-62
2024/01/12 05:48:47;;;;;;;;;;;1.00;99.90;;;;;;5070694;28;19962;-62
2024/01/12 05:51:13;;;;;;;;;;;0.90;99.90;;;;;;5025732;28;19917;-62
2024/01/12 05:53:38;;;;;;;;;;;0.90;99.90;;;;;;5028410;28;19909;-62
2024/01/12 05:56:05;;;;;;;;;;;0.90;99.90;;;;;;5029689;28;19913;-62
2024/01/12 05:58:30;;;;;;;;;;;0.90;99.90;;;;;;5023423;28;20011;-62
2024/01/12 06:00:56;;;;;;;;;;;0.90;99.90;;;;;;5022924;28;20028;-62
2024/01/12 06:03:21;;;;;;;;;;;0.90;99.90;;;;;;5022904;28;19920;-62
2024/01/12 06:05:48;;;;;;;;;;;0.90;99.90;;;;;;5023390;28;19914;-62
2024/01/12 06:08:14;;;;;;;;;;;1.00;99.90;;;;;;5021787;28;19940;-62
2024/01/12 06:10:39;;;;;;;;;;;1.00;99.90;;;;;;5022547;28;19917;-62
2024/01/12 06:13:05;;;;;;;;;;;1.00;99.90;;;;;;5022567;28;19959;-62
2024/01/12 06:15:31;;;;;;;;;;;0.90;99.90;;;;;;5022843;28;19914;-62
2024/01/12 06:17:58;;;;;;;;;;;1.00;99.90;;;;;;5048243;28;19913;-62
2024/01/12 06:20:24;;;;;;;;;;;1.00;99.90;;;;;;5022343;28;19917;-62
2024/01/12 06:22:49;;;;;;;;;;;1.00;99.90;;;;;;5031128;28;20581;-62
2024/01/12 06:25:15;;;;;;;;;;;1.00;99.90;;;;;;5014534;28;19917;-62
2024/01/12 06:27:41;;;;;;;;;;;1.00;99.90;;;;;;5022847;28;19993;-62
2024/01/12 06:30:07;;;;;;;;;;;1.00;99.90;;;;;;5029963;28;19924;-62
2024/01/12 06:32:33;;;;;;;;;;;1.00;99.90;;;;;;5022443;28;20126;-62
2024/01/12 06:34:58;;;;;;;;;;;1.00;99.90;;;;;;5022288;28;19996;-62
2024/01/12 06:37:24;;;;;;;;;;;1.00;99.90;;;;;;5022443;28;20300;-62
2024/01/12 06:39:49;;;;;;;;;;;1.00;99.90;;;;;;5022345;28;20065;-62
2024/01/12 06:42:15;;;;;;;;;;;1.00;99.90;;;;;;5022868;28;19966;-62
2024/01/12 06:44:41;;;;;;;;;;;1.00;99.90;;;;;;5022725;28;20653;-62
2024/01/12 06:47:07;;;;;;;;;;;1.00;99.90;;;;;;5021977;28;19913;-62
2024/01/12 06:49:33;;;;;;;;;;;1.00;99.90;;;;;;5004722;28;19924;-62
2024/01/12 06:51:59;;;;;;;;;;;1.00;99.90;;;;;;5021415;28;19909;-62
2024/01/12 06:54:24;;;;;;;;;;;1.00;99.90;;;;;;5004700;28;20451;-62
2024/01/12 06:56:52;;;;;;;;;;;1.00;99.90;;;;;;5029034;28;19913;-62
2024/01/12 06:59:18;;;;;;;;;;;1.00;99.90;;;;;;5014531;28;19939;-62
2024/01/12 07:01:43;;;;;;;;;;;1.00;99.90;;;;;;5022117;28;19917;-62
2024/01/12 07:04:09;;;;;;;;;;;1.00;99.90;;;;;;5021719;28;19909;-62
2024/01/12 07:06:35;;;;;;;;;;;1.00;99.90;;;;;;5022056;28;20007;-62
2024/01/12 07:09:00;;;;;;;;;;;1.00;99.90;;;;;;5021615;28;19916;-62
2024/01/12 07:11:26;;;;;;;;;;;1.00;99.90;;;;;;5030085;28;19913;-62
2024/01/12 07:13:52;;;;;;;;;;;1.00;99.90;;;;;;5021519;28;19952;-62
2024/01/12 07:16:17;;;;;;;;;;;1.00;99.90;;;;;;5021479;28;20316;-62
2024/01/12 07:18:43;;;;;;;;;;;1.00;99.90;;;;;;5017442;28;19921;-62
2024/01/12 07:21:08;;;;;;;;;;;1.00;99.90;;;;;;5023973;28;19931;-62
2024/01/12 07:23:34;;;;;;;;;;;1.00;99.90;;;;;;5025058;28;19938;-62
2024/01/12 07:26:00;;;;;;;;;;;1.00;99.90;;;;;;5034363;28;19909;-62
2024/01/12 07:28:26;;;;;;;;;;;1.00;99.90;;;;;;5032081;28;19920;-62
2024/01/12 07:30:52;;;;;;;;;;;1.00;99.90;;;;;;5024199;28;19921;-62
2024/01/12 07:33:19;;;;;;;;;;;1.00;99.90;;;;;;5040641;27;20326;-62
2024/01/12 07:35:45;;;;;;;;;;;1.00;99.90;;;;;;5040899;28;19923;-62
2024/01/12 07:38:10;;;;;;;;;;;1.00;99.90;;;;;;5025681;28;19917;-62
2024/01/12 07:40:36;;;;;;;;;;;1.00;99.90;;;;;;5025034;28;19913;-62
2024/01/12 07:43:01;;;;;;;;;;;1.00;99.90;;;;;;5024627;28;19920;-62
2024/01/12 07:45:27;;;;;;;;;;;1.00;99.90;;;;;;5033333;28;19921;-62
2024/01/12 07:47:52;;;;;;;;;;;1.00;99.90;;;;;;5046609;28;20383;-62
2024/01/12 07:50:18;;;;;;;;;;;1.10;99.90;;;;;;5027322;28;19924;-62
2024/01/12 07:52:43;;;;;;;;;;;1.00;99.90;;;;;;5025068;28;19917;-62
2024/01/12 07:55:09;;;;;;;;;;;1.00;99.90;;;;;;5032629;28;19913;-62
2024/01/12 07:57:34;;;;;;;;;;;1.10;99.90;;;;;;5024780;28;19920;-62
2024/01/12 08:00:00;;;;;;;;;;;1.10;99.90;;;;;;5032225;28;20712;-62
2024/01/12 08:02:25;;;;;;;;;;;1.10;99.90;;;;;;5024921;28;19913;-62
2024/01/12 08:04:51;;;;;;;;;;;1.10;99.90;;;;;;5024905;28;19913;-62
2024/01/12 08:07:16;;;;;;;;;;;1.10;99.90;;;;;;5016583;28;19974;-62
2024/01/12 08:09:42;;;;;;;;;;;1.10;99.90;;;;;;5024637;28;19929;-62
2024/01/12 08:12:07;;;;;;;;;;;1.10;99.90;;;;;;5026397;28;20488;-62
2024/01/12 08:14:33;;;;;;;;;;;1.10;99.90;;;;;;5036223;28;19920;-62
2024/01/12 08:16:59;;;;;;;;;;;1.10;99.90;;;;;;5035319;28;19913;-62
2024/01/12 08:19:24;;;;;;;;;;;1.10;99.90;;;;;;5024607;28;19961;-62
2024/01/12 08:21:50;;;;;;;;;;;1.10;99.90;;;;;;5024419;28;19917;-62
2024/01/12 08:24:16;;;;;;;;;;;1.10;99.90;;;;;;5024058;28;19993;-62
2024/01/12 08:26:41;;;;;;;;;;;1.10;99.90;;;;;;5024570;28;19913;-62
2024/01/12 08:29:07;;;;;;;;;;;1.10;99.90;;;;;;5023730;28;19975;-62
2024/01/12 08:31:32;;;;;;;;;;;1.10;99.90;;;;;;5023987;28;20049;-62
2024/01/12 08:33:58;;;;;;;;;;;1.10;99.90;;;;;;5032285;28;19986;-62
2024/01/12 08:36:24;;;;;;;;;;;1.10;99.90;;;;;;5091995;28;19909;-62
2024/01/12 08:38:50;;;;;;;;;;;1.10;99.90;;;;;;5068496;28;19917;-62
2024/01/12 08:41:16;;;;;;;;;;;1.10;99.90;;;;;;5023917;28;19938;-62
2024/01/12 08:43:41;;;;;;;;;;;1.10;99.90;;;;;;5073953;28;19913;-62
2024/01/12 08:46:08;;;;;;;;;;;1.10;99.90;;;;;;5023863;28;19913;-62
2024/01/12 08:48:34;;;;;;;;;;;1.10;99.90;;;;;;5024115;28;19913;-62
2024/01/12 08:51:00;;;;;;;;;;;1.10;99.90;;;;;;5025633;28;19913;-62
2024/01/12 08:53:26;;;;;;;;;;;1.10;99.90;;;;;;5032313;28;19980;-62
2024/01/12 08:55:52;;;;;;;;;;;1.20;99.90;;;;;;5032114;28;20015;-62
2024/01/12 08:58:17;;;;;;;;;;;1.20;99.90;;;;;;5023911;28;19913;-62
2024/01/12 09:00:43;;;;;;;;;;;1.10;99.90;;;;;;5023997;28;20405;-62
2024/01/12 09:03:08;;;;;;;;;;;1.20;99.90;;;;;;5024183;28;19909;-62
2024/01/12 09:05:34;;;;;;;;;;;1.20;99.90;;;;;;5049207;28;20042;-62
2024/01/12 09:08:01;;;;;;;;;;;1.20;99.90;;;;;;5024143;28;19916;-62
2024/01/12 09:10:27;;;;;;;;;;;1.20;99.90;;;;;;5023982;28;20070;-62
2024/01/12 09:12:52;;;;;;;;;;;1.20;99.90;;;;;;5032276;28;20436;-62
2024/01/12 09:15:18;;;;;;;;;;;1.20;99.90;;;;;;5032238;28;19951;-62
2024/01/12 09:17:44;;;;;;;;;;;1.20;99.90;;;;;;5024171;28;19945;-62
2024/01/12 09:20:09;;;;;;;;;;;1.20;99.90;;;;;;5031769;28;20538;-62
2024/01/12 09:22:35;;;;;;;;;;;1.20;99.90;;;;;;5032065;28;19914;-62
2024/01/12 09:25:00;;;;;;;;;;;1.20;99.90;;;;;;5007807;28;19913;-62
2024/01/12 09:27:26;;;;;;;;;;;1.20;99.90;;;;;;5023867;28;19956;-62
2024/01/12 09:29:52;;;;;;;;;;;1.20;99.90;;;;;;5031485;28;20317;-62
2024/01/12 09:32:18;;;;;;;;;;;1.20;99.90;;;;;;5023238;28;19913;-62
2024/01/12 09:34:43;;;;;;;;;;;1.20;99.90;;;;;;5005858;28;19917;-62
2024/01/12 09:37:09;;;;;;;;;;;1.20;99.90;;;;;;5023513;28;19909;-62
2024/01/12 09:39:34;;;;;;;;;;;1.30;99.90;;;;;;5023275;28;19966;-62
2024/01/12 09:42:03;;;;;;;;;;;1.30;99.90;;;;;;5022839;28;20552;-62
2024/01/12 09:44:31;;;;;;;;;;;1.20;99.90;;;;;;5030856;28;19925;-62
2024/01/12 09:46:58;;;;;;;;;;;1.20;99.90;;;;;;5022939;28;20296;-62
2024/01/12 09:49:24;;;;;;;;;;;1.20;99.90;;;;;;5023000;28;19944;-62
2024/01/12 09:51:50;;;;;;;;;;;1.20;99.90;;;;;;5060803;27;19939;-62
2024/01/12 09:54:19;;;;;;;;;;;1.20;99.90;;;;;;5031848;28;20262;-62
2024/01/12 09:56:47;;;;;;;;;;;1.20;99.90;;;;;;5023914;28;19913;-62
2024/01/12 09:59:12;;;;;;;;;;;1.20;99.90;;;;;;5025091;28;19924;-62
2024/01/12 10:01:39;;;;;;;;;;;1.30;99.90;;;;;;5066687;28;19909;-62
2024/01/12 10:04:05;;;;;;;;;;;1.30;99.90;;;;;;5022572;28;19960;-62
2024/01/12 10:06:32;;;;;;;;;;;1.20;99.90;;;;;;5023265;28;20619;-62
2024/01/12 10:08:57;;;;;;;;;;;1.30;99.90;;;;;;5039098;28;19919;-62
2024/01/12 10:11:23;;;;;;;;;;;1.30;99.90;;;;;;5023099;28;19913;-62
2024/01/12 10:13:49;;;;;;;;;;;1.30;99.90;;;;;;5023120;28;19928;-62
2024/01/12 10:16:18;;;;;;;;;;;1.30;99.90;;;;;;5022910;28;19993;-62
2024/01/12 10:18:43;;;;;;;;;;;1.30;99.90;;;;;;5018290;28;20004;-62
2024/01/12 10:21:09;;;;;;;;;;;1.30;99.90;;;;;;5016939;28;20429;-62
2024/01/12 10:23:35;;;;;;;;;;;1.30;99.90;;;;;;5046502;28;20015;-62
2024/01/12 10:26:01;;;;;;;;;;;1.30;99.90;;;;;;5037702;28;20365;-62
2024/01/12 10:28:27;;;;;;;;;;;1.30;99.90;;;;;;5037813;28;19917;-62
2024/01/12 10:30:52;;;;;;;;;;;1.30;99.90;;;;;;5022124;28;20297;-62
2024/01/12 10:33:18;;;;;;;;;;;1.30;99.90;;;;;;5034054;28;19912;-62
2024/01/12 10:35:46;;;;;;;;;;;1.30;99.90;;;;;;5042670;28;19965;-62
2024/01/12 10:38:13;;;;;;;;;;;1.30;99.90;;;;;;5023527;28;19913;-62
2024/01/12 10:40:39;;;;;;;;;;;1.30;99.90;;;;;;5028046;28;19951;-62
2024/01/12 10:43:09;;;;;;;;;;;1.30;99.90;;;;;;5014740;28;19909;-62
2024/01/12 10:45:34;;;;;;;;;;;1.40;99.90;;;;;;5041767;28;19938;-62
2024/01/12 10:48:03;;;;;;;;;;;1.30;99.90;;;;;;5025190;28;19921;-62
2024/01/12 10:50:40;;;;;;;;;;;1.40;99.90;;;;;;5044242;28;19921;-62
2024/01/12 10:53:11;;;;;;;;;;;1.30;99.90;;;;;;5023818;28;19920;-62
2024/01/12 10:55:37;;;;;;;;;;;1.40;99.90;;;;;;5042413;28;19939;-62
2024/01/12 10:58:03;;;;;;;;;;;1.40;99.90;;;;;;5037656;28;19965;-62
2024/01/12 11:00:30;;;;;;;;;;;1.40;99.90;;;;;;5028957;28;19946;-62
2024/01/12 11:02:57;;;;;;;;;;;1.40;99.90;;;;;;5030180;28;19917;-62
2024/01/12 11:05:23;;;;;;;;;;;1.40;99.90;;;;;;5034278;28;19913;-62
2024/01/12 11:07:49;;;;;;;;;;;1.40;99.90;;;;;;5022470;28;19983;-62
2024/01/12 11:10:15;;;;;;;;;;;1.40;99.90;;;;;;5022625;28;20453;-62
2024/01/12 11:12:42;;;;;;;;;;;1.40;99.90;;;;;;5027655;28;20325;-62
2024/01/12 11:15:08;;;;;;;;;;;1.40;99.90;;;;;;5022309;28;20455;-62
2024/01/12 11:17:34;;;;;;;;;;;1.40;99.90;;;;;;5004890;28;19952;-62
2024/01/12 11:20:03;;;;;;;;;;;1.40;99.90;;;;;;5021177;28;19942;-62
2024/01/12 11:22:28;;;;;;;;;;;1.50;99.90;;;;;;5039560;28;19928;-62
2024/01/12 11:24:57;;;;;;;;;;;1.50;99.90;;;;;;5040414;28;19913;-62
2024/01/12 11:27:30;;;;;;;;;;;1.50;99.90;;;;;;5030122;28;20432;-62
2024/01/12 11:30:00;;;;;;;;;;;1.50;99.90;;;;;;5040902;28;19921;-62
2024/01/12 11:32:26;;;;;;;;;;;1.50;99.90;;;;;;5025947;28;19920;-62
2024/01/12 11:34:52;;;;;;;;;;;1.50;99.90;;;;;;5033711;28;20323;-62
2024/01/12 11:37:17;;;;;;;;;;;1.50;99.90;;;;;;5038778;28;19925;-62
2024/01/12 11:39:44;;;;;;;;;;;1.50;99.90;;;;;;5036511;28;19921;-62
2024/01/12 11:42:10;;;;;;;;;;;1.50;99.90;;;;;;5025090;28;19909;-62
2024/01/12 11:44:36;;;;;;;;;;;1.50;99.90;;;;;;5028002;28;19985;-62
2024/01/12 11:47:07;;;;;;;;;;;1.50;99.90;;;;;;5019991;28;19945;-62
2024/01/12 11:49:34;;;;;;;;;;;1.50;99.90;;;;;;5016352;28;19924;-62
2024/01/12 11:52:03;;;;;;;;;;;1.50;99.90;;;;;;5029494;28;19912;-62
2024/01/12 11:54:28;;;;;;;;;;;1.50;99.90;;;;;;5027841;28;19952;-62
2024/01/12 11:56:55;;;;;;;;;;;1.60;99.90;;;;;;5021355;28;19985;-62
2024/01/12 11:59:21;;;;;;;;;;;1.60;99.90;;;;;;5020775;28;19925;-62
2024/01/12 12:01:47;;;;;;;;;;;1.60;99.90;;;;;;5020836;28;20261;-62
2024/01/12 12:04:14;;;;;;;;;;;1.60;99.90;;;;;;5023230;28;20588;-62
2024/01/12 12:06:40;;;;;;;;;;;1.60;99.90;;;;;;5028458;28;20346;-62
2024/01/12 12:09:06;;;;;;;;;;;1.60;99.90;;;;;;5023576;28;20561;-62
2024/01/12 12:11:31;;;;;;;;;;;1.60;99.90;;;;;;5023641;28;20008;-62
2024/01/12 12:13:57;;;;;;;;;;;1.60;99.90;;;;;;5023782;28;19913;-62
2024/01/12 12:16:23;;;;;;;;;;;1.60;99.90;;;;;;5023002;28;19913;-62
2024/01/12 12:18:49;;;;;;;;;;;1.60;99.90;;;;;;5020488;28;20556;-62
2024/01/12 12:21:14;;;;;;;;;;;1.60;99.90;;;;;;5031478;28;19913;-62
2024/01/12 12:23:41;;;;;;;;;;;1.60;99.90;;;;;;5023597;28;20351;-62
2024/01/12 12:26:07;;;;;;;;;;;1.60;99.90;;;;;;5023435;28;19917;-62
2024/01/12 12:28:32;;;;;;;;;;;1.70;99.90;;;;;;5023806;28;20046;-62
2024/01/12 12:30:58;;;;;;;;;;;1.70;99.90;;;;;;5039651;28;19924;-62
2024/01/12 12:33:24;;;;;;;;;;;1.70;99.90;;;;;;5023721;28;19917;-62
2024/01/12 12:36:07;;;;;;;;;;;1.70;99.90;;;;;;5011381;28;20467;-62
2024/01/12 12:38:33;;;;;;;;;;;1.70;99.90;;;;;;5022099;28;19917;-62
2024/01/12 12:40:58;;;;;;;;;;;1.70;99.90;;;;;;5034202;28;19977;-62
2024/01/12 12:43:25;;;;;;;;;;;1.70;99.90;;;;;;5023498;28;20514;-62
2024/01/12 12:45:54;;;;;;;;;;;1.70;99.90;;;;;;5031074;28;19925;-62
2024/01/12 12:48:23;;;;;;;;;;;1.70;99.90;;;;;;5033742;28;19992;-62
2024/01/12 12:50:48;;;;;;;;;;;1.70;99.90;;;;;;5030192;28;20389;-62
2024/01/12 12:53:14;;;;;;;;;;;1.70;99.90;;;;;;5023246;28;19909;-62
2024/01/12 12:55:40;;;;;;;;;;;1.70;99.90;;;;;;5023112;28;20000;-62
2024/01/12 12:58:07;;;;;;;;;;;1.70;99.90;;;;;;5023375;28;20761;-62
2024/01/12 13:00:33;;;;;;;;;;;1.70;99.90;;;;;;5005086;28;20020;-62
2024/01/12 13:02:58;;;;;;;;;;;1.70;99.90;;;;;;5022747;28;19995;-62
2024/01/12 13:05:24;;;;;;;;;;;1.70;99.90;;;;;;5005434;28;19913;-62
2024/01/12 13:07:49;;;;;;;;;;;1.80;99.90;;;;;;5031526;28;19934;-62
2024/01/12 13:10:15;;;;;;;;;;;1.70;99.90;;;;;;5022242;28;20265;-62
2024/01/12 13:12:40;;;;;;;;;;;1.70;99.90;;;;;;5024205;28;20310;-62
2024/01/12 13:15:06;;;;;;;;;;;1.70;99.90;;;;;;5023399;28;20444;-62
2024/01/12 13:17:32;;;;;;;;;;;1.70;99.90;;;;;;5022988;28;20003;-62
2024/01/12 13:19:57;;;;;;;;;;;1.70;99.90;;;;;;5035530;28;19930;-62
2024/01/12 13:22:23;;;;;;;;;;;1.70;99.90;;;;;;5032445;28;20337;-62
2024/01/12 13:24:49;;;;;;;;;;;1.70;99.90;;;;;;5031030;28;19951;-62
2024/01/12 13:27:14;;;;;;;;;;;1.70;99.90;;;;;;5028729;28;19909;-62
2024/01/12 13:29:40;;;;;;;;;;;1.70;99.90;;;;;;5021864;28;19973;-62
2024/01/12 13:32:05;;;;;;;;;;;1.80;99.90;;;;;;5022495;28;19962;-62
2024/01/12 13:34:31;;;;;;;;;;;1.70;99.90;;;;;;5027944;28;19912;-62
2024/01/12 13:37:01;;;;;;;;;;;1.80;99.90;;;;;;5026330;28;19967;-62
2024/01/12 13:39:26;;;;;;;;;;;1.80;99.90;;;;;;5030373;28;19935;-62
2024/01/12 13:41:54;;;;;;;;;;;1.80;99.90;;;;;;5030544;28;20135;-62
2024/01/12 13:44:19;;;;;;;;;;;1.80;99.90;;;;;;5022456;28;19914;-62
2024/01/12 13:46:45;;;;;;;;;;;1.70;99.90;;;;;;5029649;28;19916;-62
2024/01/12 13:49:10;;;;;;;;;;;1.70;99.90;;;;;;5024165;28;20636;-62
2024/01/12 13:51:36;;;;;;;;;;;1.80;99.90;;;;;;5023821;28;19913;-62
2024/01/12 13:54:04;;;;;;;;;;;1.80;99.90;;;;;;5023243;28;19921;-62
2024/01/12 13:56:31;;;;;;;;;;;1.70;99.90;;;;;;5035886;28;19993;-62
2024/01/12 13:59:01;;;;;;;;;;;1.80;99.90;;;;;;5022807;28;20414;-62
2024/01/12 14:01:27;;;;;;;;;;;1.70;99.90;;;;;;5022849;28;20005;-62
2024/01/12 14:03:52;;;;;;;;;;;1.70;99.90;;;;;;5022841;28;19949;-62
2024/01/12 14:06:18;;;;;;;;;;;1.70;99.90;;;;;;5022500;28;19917;-62
2024/01/12 14:08:43;;;;;;;;;;;1.70;99.90;;;;;;5022641;28;19917;-62
2024/01/12 14:11:10;;;;;;;;;;;1.70;99.90;;;;;;5022344;28;20005;-62
2024/01/12 14:13:36;;;;;;;;;;;1.80;99.90;;;;;;5022588;28;19913;-62
2024/01/12 14:16:01;;;;;;;;;;;1.80;99.90;;;;;;5022437;28;19944;-62
2024/01/12 14:18:27;;;;;;;;;;;1.70;99.90;;;;;;5022549;28;19964;-62
2024/01/12 14:20:54;;;;;;;;;;;1.70;99.90;;;;;;5038208;28;20593;-62
2024/01/12 14:23:21;;;;;;;;;;;1.80;99.90;;;;;;5022563;28;19913;-62